Time;durP1;ratioP1;P1;durP2;ratioP2;P2;SDS_P1;SDS_P2;PMS_P1;PMS_P2;Temp;Humidity;BMP_temperature;BMP_pressure;BME280_temperature;BME280_humidity;BME280_pressure;Samples;Min_cycle;Max_cycle;Signal;HPM_P1;HPM_P2
2023/07/16 00:01:40;;;;;;;2.05;1.95;;;;;;;18.06;100.00;99323.75;5045070;28;20033;-71
2023/07/16 00:04:05;;;;;;;0.20;0.20;;;;;;;18.16;100.00;99324.91;5045734;28;20045;-75
2023/07/16 00:06:30;;;;;;;2.72;1.65;;;;;;;18.09;100.00;99323.56;5043899;28;20050;-71
2023/07/16 00:08:56;;;;;;;0.20;0.20;;;;;;;18.04;100.00;99315.94;5043390;28;20072;-70
2023/07/16 00:11:21;;;;;;;0.40;0.40;;;;;;;18.03;100.00;99309.00;5044711;28;20108;-70
2023/07/16 00:13:48;;;;;;;1.88;1.77;;;;;;;18.07;100.00;99312.28;5028127;28;20045;-70
2023/07/16 00:16:14;;;;;;;0.20;0.20;;;;;;;18.11;100.00;99316.44;5048662;28;20018;-73
2023/07/16 00:18:42;;;;;;;0.30;0.30;;;;;;;18.08;100.00;99332.38;5048739;28;20028;-71
2023/07/16 00:21:07;;;;;;;0.20;0.20;;;;;;;18.08;100.00;99327.13;5047261;28;20029;-70
2023/07/16 00:23:33;;;;;;;0.65;0.65;;;;;;;18.12;100.00;99325.19;5030416;28;20116;-71
2023/07/16 00:25:58;;;;;;;0.20;0.20;;;;;;;18.14;100.00;99333.84;5048587;28;20032;-71
2023/07/16 00:28:24;;;;;;;0.30;0.30;;;;;;;18.15;100.00;99338.13;5048253;28;20025;-71
2023/07/16 00:30:49;;;;;;;0.20;0.20;;;;;;;18.17;100.00;99333.66;5047067;28;20021;-70
2023/07/16 00:33:14;;;;;;;0.20;0.20;;;;;;;18.19;100.00;99327.41;5030682;28;20021;-70
2023/07/16 00:35:47;;;;;;;0.20;0.20;;;;;;;18.16;100.00;99327.53;5048228;28;20501;-71
2023/07/16 00:38:12;;;;;;;0.70;0.70;;;;;;;18.19;100.00;99322.16;5048302;28;20028;-71
2023/07/16 00:40:37;;;;;;;0.47;0.47;;;;;;;18.20;100.00;99333.47;5048209;28;20034;-71
2023/07/16 00:43:03;;;;;;;1.05;1.05;;;;;;;18.18;100.00;99337.97;5048104;28;20579;-71
2023/07/16 00:45:28;;;;;;;10.32;1.98;;;;;;;18.17;100.00;99333.66;5046393;28;20049;-67
2023/07/16 00:47:54;;;;;;;0.20;0.20;;;;;;;18.20;100.00;99333.47;5048095;28;20084;-67
2023/07/16 00:50:20;;;;;;;0.20;0.20;;;;;;;18.20;100.00;99329.06;5046529;28;20045;-67
2023/07/16 00:52:45;;;;;;;0.30;0.30;;;;;;;18.23;100.00;99314.91;5047964;28;20386;-67
2023/07/16 00:55:11;;;;;;;0.20;0.20;;;;;;;18.23;100.00;99319.34;5047924;28;20028;-64
2023/07/16 00:57:37;;;;;;;0.20;0.20;;;;;;;18.16;100.00;99318.84;5046533;28;20474;-67
2023/07/16 01:00:03;;;;;;;0.30;0.30;;;;;;;18.15;100.00;99325.88;5048077;28;20021;-66
2023/07/16 01:02:29;;;;;;;0.63;0.63;;;;;;;18.14;100.00;99329.44;5029971;28;20021;-67
2023/07/16 01:04:54;;;;;;;0.20;0.20;;;;;;;18.08;100.00;99341.09;5046222;28;20032;-66
2023/07/16 01:07:23;;;;;;;0.43;0.43;;;;;;;17.98;100.00;99331.19;5047641;28;20045;-66
2023/07/16 01:09:49;;;;;;;0.50;0.50;;;;;;;17.89;100.00;99327.31;5047932;28;20021;-67
2023/07/16 01:12:15;;;;;;;0.20;0.20;;;;;;;17.86;100.00;99349.34;5047674;28;20022;-67
2023/07/16 01:14:41;;;;;;;0.60;0.60;;;;;;;17.82;100.00;99351.31;5047608;28;20025;-66
2023/07/16 01:17:06;;;;;;;0.30;0.30;;;;;;;17.78;100.00;99335.81;5046199;28;20029;-65
2023/07/16 01:19:35;;;;;;;2.45;1.30;;;;;;;17.76;100.00;99343.78;5047432;28;20746;-65
2023/07/16 01:22:06;;;;;;;0.20;0.20;;;;;;;17.76;100.00;99343.78;5047340;28;20033;-65
2023/07/16 01:25:00;;;;;;;0.30;0.30;;;;;;;17.74;100.00;99339.53;5046862;28;20137;-65
2023/07/16 01:27:41;;;;;;;0.30;0.30;;;;;;;17.76;100.00;99340.28;5047336;28;20045;-65
2023/07/16 01:30:11;;;;;;;0.20;0.20;;;;;;;17.75;100.00;99330.72;5047289;28;20047;-65
2023/07/16 01:32:37;;;;;;;0.38;0.38;;;;;;;17.78;100.00;99322.69;5047538;28;20022;-64
2023/07/16 01:35:05;;;;;;;0.20;0.20;;;;;;;17.79;100.00;99343.59;5047205;28;20075;-64
2023/07/16 01:37:31;;;;;;;0.47;0.47;;;;;;;17.77;100.00;99350.72;5047068;28;20025;-65
2023/07/16 01:39:57;;;;;;;0.20;0.20;;;;;;;17.74;100.00;99361.38;5047196;28;20036;-64
2023/07/16 01:42:22;;;;;;;0.20;0.20;;;;;;;17.75;100.00;99363.06;5047114;28;20097;-65
2023/07/16 01:44:47;;;;;;;0.20;0.20;;;;;;;17.68;100.00;99335.47;5047045;28;20021;-65
2023/07/16 01:47:28;;;;;;;0.20;0.20;;;;;;;17.75;100.00;99318.44;5047006;28;20056;-65
2023/07/16 01:49:53;;;;;;;0.30;0.30;;;;;;;17.75;100.00;99344.69;5047152;28;20052;-65
2023/07/16 01:52:18;;;;;;;0.20;0.20;;;;;;;17.77;100.00;99360.34;5046453;28;20474;-65
2023/07/16 01:54:44;;;;;;;0.20;0.20;;;;;;;17.73;100.00;99370.19;5047565;28;20045;-64
2023/07/16 01:57:09;;;;;;;0.30;0.30;;;;;;;17.74;100.00;99350.88;5046972;28;20089;-64
2023/07/16 01:59:34;;;;;;;3.60;2.03;;;;;;;17.76;100.00;99342.91;5046847;28;20089;-65
2023/07/16 02:02:00;;;;;;;0.20;0.20;;;;;;;17.76;100.00;99319.28;5047000;28;20032;-63
2023/07/16 02:04:25;;;;;;;0.20;0.20;;;;;;;17.72;100.00;99310.72;5046132;28;20083;-64
2023/07/16 02:06:51;;;;;;;0.20;0.20;;;;;;;17.65;100.00;99298.91;5046527;28;20044;-64
2023/07/16 02:09:16;;;;;;;1.25;1.15;;;;;;;17.61;100.00;99310.47;5046520;28;20029;-64
2023/07/16 02:11:41;;;;;;;0.38;0.38;;;;;;;17.56;100.00;99308.97;5046628;28;20022;-65
2023/07/16 02:14:07;;;;;;;1.25;1.25;;;;;;;17.55;100.00;99325.66;5046832;28;20093;-64
2023/07/16 02:16:32;;;;;;;0.30;0.30;;;;;;;17.50;100.00;99337.31;5046434;28;20454;-65
2023/07/16 02:18:58;;;;;;;0.20;0.20;;;;;;;17.51;100.00;99339.03;5046356;28;20029;-64
2023/07/16 02:21:23;;;;;;;0.30;0.30;;;;;;;17.49;100.00;99340.88;5046220;28;20021;-64
2023/07/16 02:23:48;;;;;;;0.20;0.20;;;;;;;17.52;100.00;99356.47;5046162;28;20052;-64
2023/07/16 02:26:14;;;;;;;0.30;0.30;;;;;;;17.49;100.00;99365.34;5046268;28;20025;-64
2023/07/16 02:28:39;;;;;;;0.40;0.40;;;;;;;17.53;100.00;99379.13;5046295;28;20032;-64
2023/07/16 02:31:05;;;;;;;0.22;0.22;;;;;;;17.55;100.00;99372.03;5046194;28;20056;-64
2023/07/16 02:33:30;;;;;;;0.20;0.20;;;;;;;17.54;100.00;99365.94;5046148;28;20438;-64
2023/07/16 02:35:55;;;;;;;0.30;0.30;;;;;;;17.57;100.00;99376.25;5046212;28;20386;-64
2023/07/16 02:38:21;;;;;;;0.20;0.20;;;;;;;17.54;100.00;99378.22;5046006;28;20048;-64
2023/07/16 02:40:48;;;;;;;0.50;0.50;;;;;;;17.53;100.00;99387.88;5046042;28;20056;-64
2023/07/16 02:43:14;;;;;;;0.20;0.20;;;;;;;17.53;100.00;99400.13;5045996;28;20021;-64
2023/07/16 02:45:39;;;;;;;0.20;0.20;;;;;;;17.51;100.00;99397.59;5045805;28;20080;-64
2023/07/16 02:48:06;;;;;;;0.52;0.52;;;;;;;17.54;100.00;99391.34;5046073;28;20025;-64
2023/07/16 02:50:37;;;;;;;0.30;0.30;;;;;;;17.52;100.00;99395.81;5045760;28;20021;-64
2023/07/16 02:53:07;;;;;;;0.77;0.77;;;;;;;17.47;100.00;99398.69;5045670;28;20032;-64
2023/07/16 02:55:35;;;;;;;0.20;0.20;;;;;;;17.48;100.00;99387.25;5045877;28;20105;-64
2023/07/16 02:58:04;;;;;;;0.22;0.22;;;;;;;17.46;100.00;99360.25;5045638;28;20045;-64
2023/07/16 03:00:33;;;;;;;0.70;0.70;;;;;;;17.40;100.00;99336.97;5046066;28;20386;-65
2023/07/16 03:03:00;;;;;;;0.20;0.20;;;;;;;17.37;100.00;99345.88;5045564;28;20018;-64
2023/07/16 03:05:28;;;;;;;0.50;0.50;;;;;;;17.28;100.00;99351.59;5045403;28;20030;-64
2023/07/16 03:07:53;;;;;;;0.30;0.30;;;;;;;17.30;100.00;99347.97;5045388;28;20033;-65
2023/07/16 03:10:20;;;;;;;0.30;0.30;;;;;;;17.30;100.00;99352.38;5045428;28;20035;-65
2023/07/16 03:12:46;;;;;;;0.20;0.20;;;;;;;17.26;100.00;99358.69;5045562;28;20021;-63
2023/07/16 03:15:11;;;;;;;0.43;0.43;;;;;;;17.28;100.00;99383.09;5045507;28;20468;-65
2023/07/16 03:17:37;;;;;;;0.30;0.30;;;;;;;17.13;100.00;99371.63;5045344;28;20090;-65
2023/07/16 03:20:05;;;;;;;0.20;0.20;;;;;;;17.13;100.00;99388.19;5045194;28;20025;-65
2023/07/16 03:22:30;;;;;;;0.85;0.85;;;;;;;17.14;100.00;99374.16;5045062;28;20033;-65
2023/07/16 03:24:56;;;;;;;2.05;1.50;;;;;;;17.08;100.00;99364.84;5045003;28;20041;-66
2023/07/16 03:27:21;;;;;;;0.70;0.70;;;;;;;17.09;100.00;99348.19;5045194;28;20478;-66
2023/07/16 03:29:47;;;;;;;0.20;0.20;;;;;;;17.03;100.00;99329.28;5045195;28;20044;-67
2023/07/16 03:32:12;;;;;;;0.20;0.20;;;;;;;16.96;100.00;99334.81;5045282;28;20075;-66
2023/07/16 03:34:38;;;;;;;0.22;0.22;;;;;;;16.87;100.00;99339.72;5045098;28;20033;-67
2023/07/16 03:37:03;;;;;;;0.25;0.25;;;;;;;16.90;100.00;99350.06;5045162;28;20067;-66
2023/07/16 03:39:28;;;;;;;0.20;0.20;;;;;;;16.82;100.00;99361.75;5043701;28;20017;-66
2023/07/16 03:41:54;;;;;;;0.20;0.20;;;;;;;16.76;100.00;99366.50;5045213;28;20021;-66
2023/07/16 03:44:19;;;;;;;0.20;0.20;;;;;;;16.69;100.00;99369.41;5045208;28;20085;-66
2023/07/16 03:46:45;;;;;;;0.30;0.30;;;;;;;16.73;100.00;99373.56;5043629;28;20047;-66
2023/07/16 03:49:10;;;;;;;0.30;0.30;;;;;;;16.70;100.00;99372.88;5044571;28;20049;-66
2023/07/16 03:51:35;;;;;;;0.20;0.20;;;;;;;16.64;100.00;99394.16;5044624;28;20021;-67
2023/07/16 03:54:01;;;;;;;0.20;0.20;;;;;;;16.58;100.00;99388.28;5044838;28;20021;-66
2023/07/16 03:56:26;;;;;;;0.20;0.20;;;;;;;16.59;100.00;99360.31;5045027;28;20059;-66
2023/07/16 03:58:52;;;;;;;0.82;0.82;;;;;;;16.58;100.00;99380.44;5043544;28;20074;-66
2023/07/16 04:01:17;;;;;;;0.20;0.20;;;;;;;16.48;100.00;99371.34;5044650;28;20029;-67
2023/07/16 04:03:43;;;;;;;0.20;0.20;;;;;;;16.48;100.00;99371.34;5044920;28;20076;-66
2023/07/16 04:06:09;;;;;;;0.20;0.20;;;;;;;16.50;100.00;99364.28;5044639;28;20022;-66
2023/07/16 04:08:35;;;;;;;0.20;0.20;;;;;;;16.48;100.00;99345.16;5044633;28;20028;-66
2023/07/16 04:11:01;;;;;;;0.20;0.20;;;;;;;16.50;100.00;99337.22;5027054;28;20025;-66
2023/07/16 04:13:27;;;;;;;0.20;0.20;;;;;;;16.53;100.00;99361.50;5043557;28;20472;-66
2023/07/16 04:15:57;;;;;;;0.20;0.20;;;;;;;16.56;100.00;99356.09;5044811;28;20085;-66
2023/07/16 04:18:23;;;;;;;0.85;0.85;;;;;;;16.56;100.00;99358.72;5044761;28;20096;-66
2023/07/16 04:20:48;;;;;;;0.60;0.60;;;;;;;16.53;100.00;99348.41;5044531;28;20033;-66
2023/07/16 04:23:14;;;;;;;0.20;0.20;;;;;;;16.48;100.00;99381.81;5044510;28;20021;-66
2023/07/16 04:25:39;;;;;;;2.67;2.47;;;;;;;16.42;100.00;99413.56;5044411;28;20100;-66
2023/07/16 04:28:05;;;;;;;0.20;0.20;;;;;;;16.41;100.00;99448.53;5044492;28;20032;-66
2023/07/16 04:30:30;;;;;;;0.20;0.20;;;;;;;16.39;100.00;99460.88;5044514;28;20029;-66
2023/07/16 04:32:56;;;;;;;0.30;0.30;;;;;;;16.39;100.00;99456.44;5044408;28;20021;-66
2023/07/16 04:35:21;;;;;;;0.15;0.15;;;;;;;16.38;100.00;99444.28;5044650;28;20032;-67
2023/07/16 04:37:47;;;;;;;0.20;0.20;;;;;;;16.38;100.00;99444.28;5044324;28;20081;-67
2023/07/16 04:40:12;;;;;;;0.20;0.20;;;;;;;16.41;100.00;99448.53;5044413;28;20018;-66
2023/07/16 04:42:37;;;;;;;0.20;0.20;;;;;;;16.43;100.00;99438.81;5044411;28;20033;-68
2023/07/16 04:45:04;;;;;;;0.20;0.20;;;;;;;16.40;100.00;99429.34;5044290;28;20156;-67
2023/07/16 04:47:29;;;;;;;0.28;0.28;;;;;;;16.40;100.00;99433.75;5044365;28;20029;-66
2023/07/16 04:49:55;;;;;;;0.22;0.22;;;;;;;16.42;100.00;99437.97;5044368;28;20028;-66
2023/07/16 04:52:20;;;;;;;0.20;0.20;;;;;;;16.44;100.00;99414.31;5044289;28;20024;-66
2023/07/16 04:54:45;;;;;;;0.20;0.20;;;;;;;16.45;100.00;99410.78;5044465;28;20013;-66
2023/07/16 04:57:11;;;;;;;0.20;0.20;;;;;;;16.42;100.00;99417.00;5044263;28;20488;-67
2023/07/16 04:59:36;;;;;;;0.20;0.20;;;;;;;16.41;100.00;99411.84;5044352;28;20077;-66
2023/07/16 05:02:04;;;;;;;0.20;0.20;;;;;;;16.47;100.00;99412.41;5045788;28;20134;-66
2023/07/16 05:04:30;;;;;;;0.50;0.50;;;;;;;16.53;100.00;99420.91;5047556;28;20025;-66
2023/07/16 05:06:55;;;;;;;0.20;0.20;;;;;;;16.51;100.00;99438.44;5047752;28;20051;-66
2023/07/16 05:09:20;;;;;;;0.20;0.20;;;;;;;16.43;100.00;99442.31;5047688;28;20022;-66
2023/07/16 05:11:46;;;;;;;0.20;0.20;;;;;;;16.40;100.00;99444.22;5047705;28;20100;-66
2023/07/16 05:14:12;;;;;;;0.20;0.20;;;;;;;16.43;100.00;99442.31;5047737;28;20027;-66
2023/07/16 05:16:37;;;;;;;0.40;0.40;;;;;;;16.46;100.00;99446.53;5029704;28;20033;-66
2023/07/16 05:19:02;;;;;;;0.20;0.20;;;;;;;16.48;100.00;99453.38;5047712;28;20021;-66
2023/07/16 05:21:28;;;;;;;0.20;0.20;;;;;;;16.51;100.00;99438.44;5047166;28;20648;-65
2023/07/16 05:23:53;;;;;;;0.20;0.20;;;;;;;16.51;100.00;99449.78;5047297;28;20058;-66
2023/07/16 05:26:18;;;;;;;0.20;0.20;;;;;;;16.50;100.00;99458.59;5047494;28;20030;-66
2023/07/16 05:28:44;;;;;;;0.20;0.20;;;;;;;16.51;100.00;99455.03;5047411;28;20032;-66
2023/07/16 05:31:09;;;;;;;3.22;1.08;;;;;;;16.52;100.00;99451.47;5047401;28;20025;-66
2023/07/16 05:33:35;;;;;;;0.20;0.20;;;;;;;16.51;100.00;99449.78;5047400;28;20084;-66
2023/07/16 05:36:00;;;;;;;0.20;0.20;;;;;;;16.55;100.00;99446.09;5047397;28;20013;-66
2023/07/16 05:38:25;;;;;;;0.20;0.20;;;;;;;16.53;100.00;99437.47;5047200;28;20474;-66
2023/07/16 05:40:51;;;;;;;1.60;1.50;;;;;;;16.55;100.00;99434.78;5047085;28;20017;-66
2023/07/16 05:43:17;;;;;;;0.20;0.20;;;;;;;16.62;100.00;99438.78;5047296;28;20021;-65
2023/07/16 05:45:42;;;;;;;0.20;0.20;;;;;;;16.62;100.00;99448.41;5047145;28;20105;-66
2023/07/16 05:48:07;;;;;;;0.20;0.20;;;;;;;16.66;100.00;99457.81;5047103;28;20029;-66
2023/07/16 05:50:33;;;;;;;0.20;0.20;;;;;;;16.63;100.00;99450.94;5046914;28;20025;-66
2023/07/16 05:52:58;;;;;;;0.28;0.28;;;;;;;16.60;100.00;99443.22;5028962;28;20021;-67
2023/07/16 05:55:24;;;;;;;0.20;0.20;;;;;;;16.56;100.00;99436.47;5047053;28;20021;-68
2023/07/16 05:57:50;;;;;;;0.20;0.20;;;;;;;16.59;100.00;99425.81;5046877;28;20032;-68
2023/07/16 06:00:16;;;;;;;0.20;0.20;;;;;;;16.63;100.00;99431.78;5046846;28;20028;-67
2023/07/16 06:02:42;;;;;;;0.20;0.20;;;;;;;16.72;100.00;99436.56;5046769;28;20029;-67
2023/07/16 06:05:08;;;;;;;0.20;0.20;;;;;;;16.76;100.00;99445.94;5046618;28;20025;-66
2023/07/16 06:07:33;;;;;;;0.20;0.20;;;;;;;16.76;100.00;99443.31;5046594;28;20021;-66
2023/07/16 06:09:59;;;;;;;0.20;0.20;;;;;;;16.74;100.00;99442.56;5046586;28;20048;-66
2023/07/16 06:12:24;;;;;;;0.20;0.20;;;;;;;16.77;100.00;99423.22;5045080;28;20040;-67
2023/07/16 06:14:50;;;;;;;0.20;0.20;;;;;;;16.81;100.00;99430.00;5046510;28;20021;-66
2023/07/16 06:17:15;;;;;;;0.20;0.20;;;;;;;16.88;100.00;99435.78;5046522;28;20457;-67
2023/07/16 06:19:41;;;;;;;0.20;0.20;;;;;;;16.93;100.00;99439.03;5046511;28;20032;-66
2023/07/16 06:22:07;;;;;;;0.20;0.20;;;;;;;16.95;100.00;99438.00;5046186;28;20033;-66
2023/07/16 06:24:32;;;;;;;0.60;0.60;;;;;;;17.02;100.00;99435.06;5046079;28;20041;-66
2023/07/16 06:26:58;;;;;;;0.20;0.20;;;;;;;17.06;100.00;99424.34;5046323;28;20033;-68
2023/07/16 06:29:23;;;;;;;0.10;0.10;;;;;;;17.12;100.00;99425.00;5046288;28;20025;-69
2023/07/16 06:31:59;;;;;;;0.20;0.20;;;;;;;17.21;100.00;99424.50;5046211;28;20032;-68
2023/07/16 06:34:27;;;;;;;0.20;0.20;;;;;;;17.26;100.00;99440.88;5028441;28;20025;-69
2023/07/16 06:36:52;;;;;;;0.20;0.20;;;;;;;17.27;100.00;99439.94;5046104;28;20022;-71
2023/07/16 06:39:18;;;;;;;0.20;0.20;;;;;;;17.30;100.00;99426.66;5046036;28;20036;-72
2023/07/16 06:41:43;;;;;;;0.43;0.43;;;;;;;17.30;100.00;99442.38;5045973;28;20112;-73
2023/07/16 06:44:09;;;;;;;0.20;0.20;;;;;;;17.36;100.00;99450.88;5045689;28;20018;-71
2023/07/16 06:46:34;;;;;;;0.63;0.45;;;;;;;17.38;100.00;99451.66;5044557;28;20022;-72
2023/07/16 06:49:00;;;;;;;0.20;0.20;;;;;;;17.41;100.00;99454.94;5045727;28;20026;-71
2023/07/16 06:51:25;;;;;;;0.20;0.20;;;;;;;17.47;100.00;99461.66;5045734;28;20029;-70
2023/07/16 06:53:50;;;;;;;0.20;0.20;;;;;;;17.50;100.00;99474.63;5045940;28;20026;-72
2023/07/16 06:56:16;;;;;;;1.10;1.05;;;;;;;17.56;100.00;99474.28;5028076;28;20021;-72
2023/07/16 06:58:41;;;;;;;0.20;0.20;;;;;;;17.60;100.00;99461.88;5045594;28;20379;-71
2023/07/16 07:01:07;;;;;;;0.30;0.30;;;;;;;17.70;100.00;99470.94;5045548;28;20024;-72
2023/07/16 07:03:35;;;;;;;0.20;0.20;;;;;;;18.22;100.00;99462.97;5045538;28;20535;-69
2023/07/16 07:06:03;;;;;;;0.20;0.20;;;;;;;18.85;100.00;99467.34;5045648;28;20021;-68
2023/07/16 07:08:29;;;;;;;0.20;0.20;;;;;;;19.34;100.00;99458.34;5045387;28;20033;-71
2023/07/16 07:10:54;;;;;;;0.20;0.20;;;;;;;19.78;100.00;99466.22;5045269;28;20029;-70
2023/07/16 07:13:20;;;;;;;0.43;0.43;;;;;;;20.17;100.00;99446.25;5044084;28;20029;-68
2023/07/16 07:15:45;;;;;;;0.22;0.22;;;;;;;20.88;100.00;99449.63;5045252;28;20017;-68
2023/07/16 07:18:10;;;;;;;0.30;0.30;;;;;;;20.95;94.67;99455.34;5045192;28;20108;-71
2023/07/16 07:20:36;;;;;;;0.20;0.20;;;;;;;21.20;94.47;99457.16;5045290;28;20392;-69
2023/07/16 07:23:03;;;;;;;0.85;0.85;;;;;;;21.22;90.96;99457.06;5044466;28;20549;-72
2023/07/16 07:25:28;;;;;;;0.20;0.20;;;;;;;21.24;85.71;99466.56;5044930;28;20053;-70
2023/07/16 07:27:54;;;;;;;0.30;0.30;;;;;;;21.41;81.85;99460.13;5045258;28;20117;-72
2023/07/16 07:30:19;;;;;;;0.10;0.10;;;;;;;21.54;81.80;99449.56;5045156;28;20025;-71
2023/07/16 07:32:45;;;;;;;0.20;0.20;;;;;;;22.14;85.00;99458.66;5045044;28;20029;-71
2023/07/16 07:35:10;;;;;;;0.10;0.10;;;;;;;22.62;82.01;99465.75;5045042;28;20021;-70
2023/07/16 07:37:36;;;;;;;0.10;0.10;;;;;;;22.81;78.11;99471.47;5045055;28;20024;-70
2023/07/16 07:40:02;;;;;;;1.38;1.27;;;;;;;23.01;72.62;99467.31;5044936;28;20021;-68
2023/07/16 07:42:28;;;;;;;0.40;0.40;;;;;;;23.08;68.70;99457.97;5045085;28;20101;-69
2023/07/16 07:44:53;;;;;;;4.85;1.10;;;;;;;23.12;63.79;99469.13;5044831;28;20029;-70
2023/07/16 07:47:19;;;;;;;0.20;0.20;;;;;;;23.08;61.73;99478.28;5044907;28;20029;-71
2023/07/16 07:49:44;;;;;;;1.20;1.20;;;;;;;23.05;61.54;99473.22;5044946;28;20021;-71
2023/07/16 07:52:10;;;;;;;1.15;1.10;;;;;;;23.25;63.61;99475.19;5044572;28;20017;-69
2023/07/16 07:54:35;;;;;;;0.95;0.70;;;;;;;23.30;60.69;99471.31;5045012;28;20052;-71
2023/07/16 07:57:04;;;;;;;0.20;0.20;;;;;;;23.37;61.30;99472.56;5044808;28;20030;-67
2023/07/16 07:59:31;;;;;;;0.10;0.10;;;;;;;23.55;60.95;99478.25;5044829;28;20051;-67
2023/07/16 08:01:58;;;;;;;0.30;0.30;;;;;;;23.64;60.40;99458.16;5044717;28;20026;-67
2023/07/16 08:04:24;;;;;;;2.65;2.45;;;;;;;24.04;61.20;99485.94;5026963;28;20049;-68
2023/07/16 08:06:50;;;;;;;0.10;0.10;;;;;;;24.22;59.15;99483.63;5044577;28;20033;-66
2023/07/16 08:09:16;;;;;;;0.10;0.10;;;;;;;24.32;60.25;99481.06;5044655;28;20056;-68
2023/07/16 08:11:41;;;;;;;0.10;0.10;;;;;;;24.08;58.54;99475.91;5044546;28;20041;-68
2023/07/16 08:14:07;;;;;;;0.15;0.15;;;;;;;23.48;59.57;99480.50;5044633;28;20024;-64
2023/07/16 08:16:32;;;;;;;0.47;0.47;;;;;;;23.08;60.97;99495.00;5044510;28;20048;-66
2023/07/16 08:18:57;;;;;;;0.10;0.10;;;;;;;22.88;60.82;99494.72;5044744;28;20021;-65
2023/07/16 08:21:23;;;;;;;0.28;0.28;;;;;;;22.66;61.82;99482.25;5044482;28;20052;-65
2023/07/16 08:23:49;;;;;;;0.20;0.20;;;;;;;22.33;59.97;99483.75;5044242;28;20045;-65
2023/07/16 08:26:14;;;;;;;0.20;0.20;;;;;;;22.28;61.04;99471.69;5044195;28;20026;-65
2023/07/16 08:28:40;;;;;;;1.17;1.17;;;;;;;22.74;60.29;99484.31;5044694;28;20029;-68
2023/07/16 08:31:05;;;;;;;0.10;0.10;;;;;;;22.90;60.20;99478.72;5044448;28;20026;-73
2023/07/16 08:33:31;;;;;;;0.15;0.15;;;;;;;22.89;62.01;99475.22;5044422;28;20047;-69
2023/07/16 08:35:56;;;;;;;0.10;0.10;;;;;;;23.22;61.92;99477.22;5047077;28;20025;-69
2023/07/16 08:38:21;;;;;;;0.20;0.20;;;;;;;23.61;58.82;99471.63;5029854;28;20021;-69
2023/07/16 08:40:48;;;;;;;0.52;0.52;;;;;;;23.77;59.65;99468.63;5047866;28;20017;-69
2023/07/16 08:43:16;;;;;;;0.28;0.28;;;;;;;24.03;57.93;99460.38;5048097;28;20053;-69
2023/07/16 08:45:44;;;;;;;0.10;0.10;;;;;;;24.33;55.67;99488.03;5047974;28;20093;-70
2023/07/16 08:48:13;;;;;;;23.38;1.55;;;;;;;24.52;55.65;99478.59;5047883;28;20036;-69
2023/07/16 08:50:41;;;;;;;0.10;0.10;;;;;;;24.60;55.32;99480.63;5047789;28;20033;-69
2023/07/16 08:53:07;;;;;;;1.42;1.38;;;;;;;24.74;54.87;99484.78;5046512;28;20021;-70
2023/07/16 08:55:34;;;;;;;18.60;1.10;;;;;;;24.76;52.54;99491.63;5047997;28;20014;-68
2023/07/16 08:58:01;;;;;;;0.32;0.32;;;;;;;24.85;54.88;99491.84;5029871;28;20045;-69
2023/07/16 09:00:27;;;;;;;0.10;0.10;;;;;;;24.89;53.74;99495.94;5047619;28;20025;-68
2023/07/16 09:02:53;;;;;;;0.10;0.10;;;;;;;25.02;54.20;99485.13;5046365;28;20033;-69
2023/07/16 09:05:20;;;;;;;0.10;0.10;;;;;;;24.99;53.74;99491.56;5047499;28;20033;-70
2023/07/16 09:07:46;;;;;;;3.50;1.67;;;;;;;25.36;52.34;99505.31;5046064;28;20022;-69
2023/07/16 09:10:11;;;;;;;0.20;0.20;;;;;;;25.50;50.43;99499.66;5045947;28;20036;-69
2023/07/16 09:12:43;;;;;;;0.10;0.10;;;;;;;25.70;55.00;99505.09;5047691;28;20040;-69
2023/07/16 09:15:08;;;;;;;5.63;2.42;;;;;;;26.02;52.76;99505.06;5047467;28;20493;-71
2023/07/16 09:17:36;;;;;;;1.67;1.65;;;;;;;25.91;52.09;99516.66;5047522;28;20059;-69
2023/07/16 09:20:02;;;;;;;0.10;0.10;;;;;;;25.79;52.51;99523.88;5046988;28;20470;-69
2023/07/16 09:22:29;;;;;;;0.25;0.25;;;;;;;24.91;50.01;99519.69;5046897;28;20159;-70
2023/07/16 09:24:56;;;;;;;0.17;0.17;;;;;;;24.09;53.54;99518.19;5046672;28;20041;-70
2023/07/16 09:27:28;;;;;;;0.20;0.20;;;;;;;23.53;53.57;99530.50;5047074;28;20036;-70
2023/07/16 09:29:53;;;;;;;0.50;0.50;;;;;;;22.95;55.58;99516.28;5047101;28;20036;-71
2023/07/16 09:32:19;;;;;;;0.20;0.20;;;;;;;22.34;56.69;99522.44;5045758;28;20037;-70
2023/07/16 09:34:45;;;;;;;0.20;0.20;;;;;;;21.83;58.30;99532.16;5047151;28;20036;-69
2023/07/16 09:37:10;;;;;;;3.22;3.03;;;;;;;;;;5046612;28;20095;-69
2023/07/16 09:39:37;;;;;;;0.20;0.20;;;;;;;21.49;61.49;99537.94;5045901;28;20120;-68
2023/07/16 09:42:02;;;;;;;0.20;0.20;;;;;;;21.28;60.91;99541.94;5046919;28;20025;-71
2023/07/16 09:44:29;;;;;;;1.48;1.38;;;;;;;21.22;61.01;99547.66;5046828;28;20089;-70
2023/07/16 09:46:55;;;;;;;0.32;0.32;;;;;;;21.28;63.60;99535.81;5045984;28;20057;-71
2023/07/16 09:49:20;;;;;;;0.20;0.20;;;;;;;21.40;63.10;99544.72;5046929;28;20049;-71
2023/07/16 09:51:48;;;;;;;0.20;0.20;;;;;;;21.30;61.96;99541.84;5046316;28;20101;-71
2023/07/16 09:54:16;;;;;;;0.10;0.10;;;;;;;21.27;62.81;99536.78;5046803;28;20036;-71
2023/07/16 09:56:52;;;;;;;1.05;1.05;;;;;;;20.95;60.99;99527.44;5028664;28;20025;-70
2023/07/16 09:59:22;;;;;;;21.33;1.60;;;;;;;21.07;63.44;99553.97;5045428;28;20082;-70
2023/07/16 10:01:47;;;;;;;0.20;0.20;;;;;;;20.91;63.85;99542.59;5045187;28;20021;-70
2023/07/16 10:04:18;;;;;;;0.20;0.20;;;;;;;20.63;64.47;99554.09;5046775;28;20028;-69
2023/07/16 10:06:50;;;;;;;0.20;0.20;;;;;;;20.45;65.17;99551.69;5028179;28;20494;-70
2023/07/16 10:09:38;;;;;;;0.20;0.20;;;;;;;20.15;66.15;99564.06;5046457;28;20029;-71
2023/07/16 10:12:10;;;;;;;0.30;0.30;;;;;;;19.68;67.65;99551.06;5046561;28;20025;-69
2023/07/16 10:14:52;;;;;;;0.35;0.35;;;;;;;19.50;67.81;99568.81;5044739;28;20414;-69
2023/07/16 10:17:18;;;;;;;0.20;0.20;;;;;;;19.14;68.30;99575.28;5046291;28;20030;-71
2023/07/16 10:20:07;;;;;;;0.20;0.20;;;;;;;18.99;69.75;99588.38;5046285;28;20022;-71
2023/07/16 10:22:40;;;;;;;0.30;0.30;;;;;;;18.79;70.52;99563.19;5028027;28;20417;-73
2023/07/16 10:25:27;;;;;;;0.20;0.20;;;;;;;18.81;71.47;99570.06;5046178;28;20041;-71
2023/07/16 10:27:54;;;;;;;0.85;0.85;;;;;;;18.99;72.73;99559.44;5046250;28;20022;-72
2023/07/16 10:30:20;;;;;;;0.20;0.20;;;;;;;19.29;71.70;99574.41;5046019;28;20429;-70
2023/07/16 10:32:46;;;;;;;0.70;0.70;;;;;;;19.99;71.29;99564.16;5045966;28;20029;-71
2023/07/16 10:35:12;;;;;;;0.20;0.20;;;;;;;20.35;68.32;99564.59;5028455;28;20022;-71
2023/07/16 10:37:39;;;;;;;1.00;1.00;;;;;;;20.28;65.93;99568.56;5045769;28;20042;-71
2023/07/16 10:40:09;;;;;;;0.63;0.63;;;;;;;20.17;65.88;99577.16;5046022;28;20026;-71
2023/07/16 10:42:34;;;;;;;4.38;2.15;;;;;;;20.09;66.57;99556.56;5045748;28;20040;-71
2023/07/16 10:45:09;;;;;;;0.20;0.20;;;;;;;20.04;66.18;99558.63;5045692;28;20407;-70
2023/07/16 10:47:37;;;;;;;0.20;0.20;;;;;;;19.94;65.28;99571.47;5045893;28;20022;-71
2023/07/16 10:50:10;;;;;;;0.40;0.40;;;;;;;20.03;65.97;99568.31;5045618;28;20048;-70
2023/07/16 10:52:37;;;;;;;0.20;0.20;;;;;;;20.02;65.03;99563.97;5045336;28;20025;-69
2023/07/16 10:55:03;;;;;;;0.52;0.52;;;;;;;20.00;65.74;99573.72;5045738;28;20094;-70
2023/07/16 10:57:29;;;;;;;4.35;1.95;;;;;;;19.92;66.73;99583.91;5044261;28;20037;-71
2023/07/16 10:59:57;;;;;;;6.43;2.38;;;;;;;19.95;65.99;99583.72;5045593;28;20427;-70
2023/07/16 11:02:23;;;;;;;12.43;2.30;;;;;;;19.60;66.87;99605.13;5045712;28;20108;-72
2023/07/16 11:04:50;;;;;;;8.10;3.10;;;;;;;19.12;69.24;99608.75;5043825;28;20029;-73
2023/07/16 11:07:16;;;;;;;2.03;1.25;;;;;;;18.49;71.76;99599.00;5045245;28;20021;-72
2023/07/16 11:09:42;;;;;;;4.50;2.17;;;;;;;18.24;74.32;99600.34;5045297;28;20108;-71
2023/07/16 11:12:09;;;;;;;12.52;3.80;;;;;;;18.25;75.71;99602.00;5045306;28;20025;-71
2023/07/16 11:14:35;;;;;;;8.43;2.97;;;;;;;18.21;76.27;99598.69;5043888;28;20112;-70
2023/07/16 11:17:06;;;;;;;3.38;1.60;;;;;;;18.34;76.81;99611.16;5045177;28;20101;-72
2023/07/16 11:19:31;;;;;;;3.90;2.20;;;;;;;18.23;76.73;99609.13;5045361;28;20041;-71
2023/07/16 11:21:57;;;;;;;4.57;2.80;;;;;;;18.49;77.54;99601.63;5045109;28;20075;-72
2023/07/16 11:24:22;;;;;;;6.20;2.08;;;;;;;18.80;77.04;99601.72;5043475;28;20148;-71
2023/07/16 11:26:53;;;;;;;6.65;2.42;;;;;;;19.20;75.58;99606.53;5043680;28;20061;-71